KLXN

Details ICAO KLXN
Name JIM KELLY FLD
Region United States
Timezone America/Chicago (UTC-6.0)
Plans Departing 1
Arriving 3
Stats Elevation 2,413 ft / 735 m (AMSL)
Location 40.790073° -99.775502°
Runways 2
Magnetic Variation 5.215° E
Sunrise 2017-12-10 13:54:06 UTC / 2017-12-10 07:54:06 Local
Sunset 2017-12-10 23:12:53 UTC / 2017-12-10 17:12:53 Local
Advertisement - Login to hide

Runways

ID Width Length Bearing (true) Bearing (mag) Surface Threshold Offset Overrun Length
01 207 ft / 63 m 3,115 ft / 949 m 20.40° 15.19° Grass 0 ft / 0 m 0 ft / 0 m
14 98 ft / 30 m 5,505 ft / 1,678 m 143.20° 137.99° Concrete 0 ft / 0 m 0 ft / 0 m
19 207 ft / 63 m 3,115 ft / 949 m 200.41° 195.20° Grass 0 ft / 0 m 0 ft / 0 m
32 98 ft / 30 m 5,505 ft / 1,678 m 323.20° 317.99° Concrete 0 ft / 0 m 0 ft / 0 m

Map

Weather


0- 5 10 15 20 25 30 35+ Temperature / ° C

Clouds and Precipitation
Forecast for 2017-12-11 06:00 UTC. Updated an hour ago

Ground ~20,000 ft ~40,000 ft Winds

METAR

KLXN 110415Z AUTO 29009KT 10SM CLR M01/M10 A3014 RMK AO2 T10061102

TAF

Not found

Frequencies

Recorded 121.02 MHz AWOS 3
Unicom 123.00 MHz CTAF/UNICOM
Warning: Do not use this data for real-world aviation or navigation. No guarantee of current accuracy is given.